To NAV CANADA Home Page Login to a new session Search on AWWS site Feedback and Comments Disclaimer Vers la page française équivalente Tips FAQ What's new on the site To the Forecasts and Observations / NOTAM section To "File a Flight Plan" website Publications and other links Update of the User's profile FIC Telephone Numbers My Weather Data Folder Route Weather Data Regional Weather Data Local Weather Data To the Forecasts and Observations / NOTAM section
Request Generated 09/04/2015 at 07:44:20 UTC . Weather information available at that time is displayed.

METAR/TAF

CALGARY/CALGARY INTL/AB    

METAR CYYC 040700Z 35014G20KT 15SM FEW010 BKN017 07/05 A3001 RMK
SF1SC7 SF TR SLP178=
SPECI CYYC 040643Z 36014KT 15SM FEW010 BKN018 08/06 A3000 RMK SF1SC7
SF TR SLP177=
METAR CYYC 040600Z 35010KT 15SM FEW011 FEW025 BKN046 08/06 A3000 RMK
SF1SC2SC4 SF TR SLP176=
SPECI CYYC 040523Z 32008KT 15SM FEW011 SCT037 BKN072 08/06 A3000 RMK
SF1SC3AC3 SF TR SLP178=
METAR CYYC 040500Z 35006KT 15SM FEW023 BKN082 08/06 A2998 RMK SC1AC6
SC TR SLP172=

TAF CYYC 040538Z 0406/0506 02010KT P6SM SCT006 SCT015 TEMPO 0406/0409
4SM -SHRA BR BKN006 OVC015
FM040900 35008KT 3SM -SHRA BR BKN006 OVC015 TEMPO 0409/0416 6SM
-SHRA BR SCT006 OVC015 PROB30 0409/0414 OVC004
FM041600 02012KT P6SM SCT009 BKN020
BECMG 0500/0502 14008KT
FM050300 14008KT 4SM BR BKN006
RMK NXT FCST BY 040900Z=
Your time UTC time
Weather data provided by Environment Canada and NAV CANADA